National Weather Service Raw Text Product

Displaying AFOS PIL: TAFOTM Received: 2018-03-08 17:38 UTC


049 
FTUS43 KDMX 081738
TAFOTM
TAF
KOTM 081738Z 0818/0918 30011KT P6SM SCT030
     FM090000 31006KT P6SM FEW250
     FM091200 10007KT P6SM BKN080=